This is the latest recevied weather packets stored in our database for station/object NK7E-2. If no packets are shown the sender has not sent any weather packets the latest 10 day(s).
| Time | Temp. | Humidity | Pressure | Rain* | Wind** | Luminosity | Snow |
|---|---|---|---|---|---|---|---|
| 1787948417 | 37.78° C | 23% | 1029.9 hPa | 0 mm | - | - | - |
| 1787947817 | 38.33° C | 23% | 1030.3 hPa | 0 mm | - | - | - |
| 1787947217 | 38.33° C | 23% | 1030.5 hPa | 0 mm | - | - | - |
| 1787946617 | 37.78° C | 24% | 1030.5 hPa | 0 mm | - | - | - |
| 1787946017 | 37.78° C | 23% | 1030.6 hPa | 0 mm | - | - | - |
| 1787945417 | 38.33° C | 23% | 1031.1 hPa | 0 mm | - | - | - |
| 1787944817 | 37.22° C | 24% | 1031.1 hPa | 0 mm | - | - | - |
| 1787944217 | 37.78° C | 24% | 1031.5 hPa | 0 mm | - | - | - |
| 1787943617 | 37.22° C | 25% | 1031.4 hPa | 0 mm | - | - | - |
| 1787943017 | 36.67° C | 25% | 1031.4 hPa | 0 mm | - | - | - |
| 1787942417 | 36.67° C | 26% | 1031.5 hPa | 0 mm | - | - | - |
| 1787941817 | 36.11° C | 26% | 1031.7 hPa | 0 mm | - | - | - |
| 1787941217 | 36.11° C | 27% | 1031.5 hPa | 0 mm | - | - | - |
| 1787940617 | 36.11° C | 27% | 1031.6 hPa | 0 mm | - | - | - |
| 1787940017 | 35.56° C | 28% | 1031.5 hPa | 0 mm | - | - | - |
| 1787939417 | 35.56° C | 29% | 1031.7 hPa | 0 mm | - | - | - |
| 1787938817 | 35° C | 29% | 1031.7 hPa | 0 mm | - | - | - |
| 1787938217 | 34.44° C | 30% | 1031.6 hPa | 0 mm | - | - | - |
| 1787937617 | 33.89° C | 30% | 1031.5 hPa | 0 mm | - | - | - |
| 1787937017 | 33.89° C | 31% | 1031.7 hPa | 0 mm | - | - | - |
| 1787936416 | 33.33° C | 31% | 1031.8 hPa | 0 mm | - | - | - |
| 1787935817 | 33.33° C | 32% | 1031.7 hPa | 0 mm | - | - | - |
| 1787935217 | 33.33° C | 32% | 1031.5 hPa | 0 mm | - | - | - |
| 1787934617 | 32.78° C | 32% | 1031.6 hPa | 0 mm | - | - | - |
| 1787934016 | 32.22° C | 34% | 1031.5 hPa | 0 mm | - | - | - |
* Rain latest hour (hover to see other rain measurements)
** Current wind speed in m/s (hover to see current wind gust speed)